KRWF/RWF METAR and TAF weather

Enter ICAO airport designator
Station Type Date Time Source
KRWF METAR 2021/09/16 11:53 UTC NOAA

KRWF 161153Z AUTO 16011G21KT 10SM CLR 19/15 A2978 RMK AO2 SLP079 T01890150 10200 20183 56011


Station Type Date Time Source
KRWF Decoded METAR 2021/09/16 11:53 UTC NOAA

REDWOOD FALLS MUNICIPAL, MN, United States (KRWF) 44-33N 95-05W 311M
Sep 16, 2021 - 07:53 AM EDT / 2021.09.16 1153 UTC
Wind: from the SSE (160 degrees) at 13 MPH (11 KT) gusting to 24 MPH (21 KT):0
Visibility: 10 mile(s):0
Sky conditions: clear
Temperature: 66.0 F (18.9 C)
Dew Point: 59.0 F (15.0 C)
Relative Humidity: 78%
Pressure (altimeter): 29.78 in. Hg (1008 hPa)
Pressure tendency: 0.03 inches (1.1 hPa) lower than three hours ago
ob: KRWF 161153Z AUTO 16011G21KT 10SM CLR 19/15 A2978 RMK AO2 SLP079 T01890150 10200 20183 56011
cycle: 12

Station Type Date Time Source
KRWF TAF 2021/09/16 12:22 UTC NOAA

TAF KRWF 161120Z 1612/1712 18014G22KT P6SM FEW080 WS020/20045KT
FM161400 19016G28KT P6SM SKC
FM170000 20012G20KT P6SM BKN100 PROB30 1701/1703 2SM -TSRA OVC050CB
FM170300 25009KT 5SM -TSRA BKN050CB
FM170700 35009KT P6SM OVC040

Example: see airport list